Time;durP1;ratioP1;P1;durP2;ratioP2;P2;SDS_P1;SDS_P2;PMS_P1;PMS_P2;Temp;Humidity;BMP_temperature;BMP_pressure;BME280_temperature;BME280_humidity;BME280_pressure;Samples;Min_cycle;Max_cycle;Signal;HPM_P1;HPM_P2
2022/01/13 00:01:41;;;;;;;2.38;2.22;;;0.60;99.90;;;;;;5033921;28;20034;-67
2022/01/13 00:04:10;;;;;;;1.02;1.02;;;0.50;99.90;;;;;;5033935;28;20029;-67
2022/01/13 00:06:37;;;;;;;2.30;1.77;;;0.30;99.90;;;;;;5016148;28;20034;-67
2022/01/13 00:09:05;;;;;;;0.50;0.50;;;0.20;99.90;;;;;;5032907;28;20052;-68
2022/01/13 00:11:30;;;;;;;2.40;1.77;;;0.10;99.90;;;;;;5032650;28;20374;-67
2022/01/13 00:16:40;;;;;;;13.80;1.23;;;0.00;99.90;;;;;;5033756;28;20121;-67
2022/01/13 00:22:18;;;;;;;0.20;0.20;;;-0.10;99.90;;;;;;5032089;28;20457;-67
2022/01/13 00:24:29;;;;;;;0.88;0.88;;;-0.30;99.90;;;;;;5032095;28;20514;-67
2022/01/13 00:26:55;;;;;;;0.75;0.75;;;-0.30;99.90;;;;;;5015563;28;20033;-67
2022/01/13 00:29:28;;;;;;;1.77;1.67;;;-0.40;99.90;;;;;;5033711;28;20033;-68
2022/01/13 00:31:54;;;;;;;0.20;0.20;;;-0.40;99.90;;;;;;5033485;28;20116;-67
2022/01/13 00:34:20;;;;;;;0.15;0.15;;;-0.40;99.90;;;;;;5032088;28;20105;-67
2022/01/13 00:36:46;;;;;;;0.13;0.13;;;-0.30;99.90;;;;;;5033268;28;20034;-67
2022/01/13 00:39:14;;;;;;;0.10;0.10;;;-0.30;99.90;;;;;;5033634;28;20044;-67
2022/01/13 00:41:40;;;;;;;1.48;1.40;;;-0.30;99.90;;;;;;5033225;28;20034;-67
2022/01/13 00:44:09;;;;;;;0.73;0.73;;;-0.30;99.90;;;;;;5031995;28;20056;-67
2022/01/13 00:46:43;;;;;;;0.40;0.40;;;-0.30;99.90;;;;;;5031879;28;20044;-67
2022/01/13 00:49:12;;;;;;;0.22;0.22;;;-0.30;99.90;;;;;;5032978;28;20038;-67
2022/01/13 00:51:38;;;;;;;0.75;0.75;;;-0.30;99.90;;;;;;5031693;28;20029;-67
2022/01/13 00:54:06;;;;;;;0.63;0.63;;;-0.30;99.90;;;;;;5032821;28;20025;-67
2022/01/13 00:56:33;;;;;;;0.10;0.10;;;-0.30;99.90;;;;;;5032710;28;20034;-67
2022/01/13 00:59:00;;;;;;;0.10;0.10;;;-0.30;99.90;;;;;;5033224;28;20030;-67
2022/01/13 01:01:26;;;;;;;1.38;0.63;;;-0.30;99.90;;;;;;5032564;28;20033;-67
2022/01/13 01:03:52;;;;;;;0.45;0.45;;;-0.30;99.90;;;;;;5033037;28;20071;-67
2022/01/13 01:06:18;;;;;;;0.43;0.32;;;-0.30;99.90;;;;;;5030964;28;20041;-67
2022/01/13 01:08:43;;;;;;;0.38;0.38;;;-0.30;99.90;;;;;;5032627;28;20076;-67
2022/01/13 01:11:09;;;;;;;0.10;0.10;;;-0.30;99.90;;;;;;5032598;28;20458;-67
2022/01/13 01:13:37;;;;;;;1.67;1.42;;;-0.30;99.90;;;;;;5031310;28;20037;-67
2022/01/13 01:16:08;;;;;;;0.63;0.63;;;-0.30;99.90;;;;;;5031650;28;20108;-67
2022/01/13 01:18:48;;;;;;;0.50;0.50;;;-0.40;99.90;;;;;;5032564;28;20109;-68
2022/01/13 01:29:20;;;;;;;0.73;0.73;;;-0.30;99.90;;;;;;5028613;28;20034;-67
2022/01/13 01:31:48;;;;;;;0.30;0.30;;;-0.30;99.90;;;;;;5012330;28;20049;-67
2022/01/13 01:36:55;;;;;;;1.35;1.30;;;-0.30;99.90;;;;;;5011259;28;20029;-67
2022/01/13 01:39:21;;;;;;;6.85;2.22;;;-0.30;99.90;;;;;;5011205;28;20384;-67
2022/01/13 01:41:50;;;;;;;0.20;0.20;;;-0.40;99.90;;;;;;5010975;28;20498;-67
2022/01/13 01:44:30;;;;;;;0.17;0.17;;;-0.40;99.90;;;;;;5011404;28;20030;-67
2022/01/13 01:46:58;;;;;;;0.17;0.17;;;-0.40;99.90;;;;;;4996110;28;20034;-67
2022/01/13 01:49:26;;;;;;;0.30;0.30;;;-0.40;99.90;;;;;;5012263;28;20080;-67
2022/01/13 01:52:00;;;;;;;1.38;1.27;;;-0.40;99.90;;;;;;5011377;28;20030;-67
2022/01/13 01:54:28;;;;;;;2.70;1.90;;;-0.40;99.90;;;;;;5011491;28;20064;-67
2022/01/13 01:56:54;;;;;;;0.30;0.30;;;-0.40;99.90;;;;;;5011038;28;20125;-67
2022/01/13 01:59:25;;;;;;;0.32;0.32;;;-0.50;99.90;;;;;;5012378;28;20110;-67
2022/01/13 02:01:52;;;;;;;23.70;5.23;;;-0.50;99.90;;;;;;4994970;28;20030;-67
2022/01/13 02:04:20;;;;;;;4.07;1.25;;;-0.60;99.90;;;;;;4994611;28;20044;-67
2022/01/13 02:06:46;;;;;;;1.63;1.52;;;-0.60;99.90;;;;;;5011041;28;20025;-67
2022/01/13 02:09:16;;;;;;;0.10;0.10;;;-0.60;99.90;;;;;;5010781;28;20029;-67
2022/01/13 02:11:51;;;;;;;0.40;0.40;;;-0.60;99.90;;;;;;4994901;28;20062;-67
2022/01/13 02:16:56;;;;;;;1.85;1.75;;;-0.60;99.90;;;;;;5012072;28;20034;-67
2022/01/13 02:19:25;;;;;;;0.32;0.32;;;-0.60;99.90;;;;;;4995234;28;20391;-67
2022/01/13 02:21:52;;;;;;;0.65;0.65;;;-0.60;99.90;;;;;;5010372;28;20037;-67
2022/01/13 02:24:18;;;;;;;0.75;0.75;;;-0.60;99.90;;;;;;5012206;28;20556;-67
2022/01/13 02:26:44;;;;;;;1.00;1.00;;;-0.50;99.90;;;;;;5010521;28;20042;-67
2022/01/13 02:29:10;;;;;;;0.17;0.17;;;-0.50;99.90;;;;;;5011996;28;20398;-67
2022/01/13 02:31:36;;;;;;;0.47;0.45;;;-0.40;99.90;;;;;;5010894;28;20034;-68
2022/01/13 02:34:02;;;;;;;1.98;1.88;;;-0.30;99.90;;;;;;5012348;28;20455;-67
2022/01/13 02:36:30;;;;;;;0.20;0.20;;;-0.20;99.90;;;;;;5014778;28;20029;-67
2022/01/13 02:38:58;;;;;;;0.10;0.10;;;-0.10;99.90;;;;;;5031428;28;20026;-68
2022/01/13 02:41:25;;;;;;;0.65;0.65;;;-0.20;99.90;;;;;;5014914;28;20042;-67
2022/01/13 02:43:59;;;;;;;0.25;0.25;;;-0.30;99.90;;;;;;5015679;28;20041;-67
2022/01/13 02:48:59;;;;;;;0.10;0.10;;;-0.30;99.90;;;;;;5015559;28;20443;-67
2022/01/13 02:51:27;;;;;;;1.33;1.27;;;-0.30;99.90;;;;;;4998023;28;20115;-67
2022/01/13 02:53:53;;;;;;;0.40;0.40;;;-0.20;99.90;;;;;;5014291;28;20030;-67
2022/01/13 02:56:19;;;;;;;2.30;1.48;;;-0.20;99.90;;;;;;5015923;28;20474;-67
2022/01/13 02:58:45;;;;;;;1.17;1.13;;;-0.20;99.90;;;;;;5013912;28;20021;-67
2022/01/13 03:01:12;;;;;;;1.90;1.42;;;-0.10;99.90;;;;;;5014282;28;20605;-67
2022/01/13 03:03:40;;;;;;;0.55;0.52;;;-0.10;99.90;;;;;;5015337;28;20038;-67
2022/01/13 03:06:21;;;;;;;4.85;1.20;;;-0.20;99.90;;;;;;5015347;28;20040;-67
2022/01/13 03:08:50;;;;;;;0.40;0.40;;;-0.40;99.90;;;;;;5029805;28;20030;-67
2022/01/13 03:11:16;;;;;;;0.10;0.10;;;-0.60;99.90;;;;;;5035136;28;20041;-67
2022/01/13 03:13:42;;;;;;;0.55;0.55;;;-0.50;99.90;;;;;;5034683;28;20033;-67
2022/01/13 03:16:10;;;;;;;0.55;0.55;;;-0.70;99.90;;;;;;5034138;28;20075;-67
2022/01/13 03:18:38;;;;;;;0.30;0.30;;;-0.70;99.90;;;;;;5035182;28;20018;-67
2022/01/13 03:21:06;;;;;;;2.50;2.33;;;-0.70;99.90;;;;;;5034755;28;20112;-67
2022/01/13 03:23:36;;;;;;;0.10;0.10;;;-0.70;99.90;;;;;;5033740;28;20402;-67
2022/01/13 03:26:04;;;;;;;0.38;0.32;;;-0.70;99.90;;;;;;5017159;28;20505;-68
2022/01/13 03:28:37;;;;;;;1.85;1.27;;;-0.80;99.90;;;;;;5022056;28;20085;-68
2022/01/13 03:31:04;;;;;;;2.22;1.42;;;-0.80;99.90;;;;;;5013884;28;20048;-68
2022/01/13 03:33:31;;;;;;;0.35;0.35;;;-0.90;99.90;;;;;;5014949;28;20066;-68
2022/01/13 03:35:58;;;;;;;0.10;0.10;;;-1.00;99.90;;;;;;5015217;28;20521;-68
2022/01/13 03:38:25;;;;;;;2.20;0.73;;;-1.00;99.90;;;;;;5013681;28;20084;-68
2022/01/13 03:40:51;;;;;;;0.10;0.10;;;-1.00;99.90;;;;;;5013311;28;20040;-68
2022/01/13 03:43:18;;;;;;;1.65;1.42;;;-0.90;99.90;;;;;;5013686;28;20042;-68
2022/01/13 03:45:45;;;;;;;0.30;0.30;;;-0.90;99.90;;;;;;5014451;28;20581;-68
2022/01/13 03:48:13;;;;;;;0.30;0.30;;;-0.90;99.90;;;;;;4997155;28;20046;-67
2022/01/13 03:50:41;;;;;;;1.65;1.55;;;-0.90;99.90;;;;;;5013299;28;20042;-67
2022/01/13 03:53:29;;;;;;;0.20;0.20;;;-0.90;99.90;;;;;;5013490;28;20033;-67
2022/01/13 03:56:35;;;;;;;1.95;1.77;;;-0.90;99.90;;;;;;5014430;28;20034;-67
2022/01/13 03:59:30;;;;;;;0.63;0.63;;;-0.90;99.90;;;;;;5014394;28;20037;-68
2022/01/13 04:02:11;;;;;;;0.47;0.47;;;-0.90;99.90;;;;;;5012914;28;20139;-67
2022/01/13 04:04:49;;;;;;;;;;;-1.10;99.90;;;;;;5013466;28;20426;-67
2022/01/13 04:07:25;;;;;;;0.52;0.52;;;-1.20;99.90;;;;;;5013147;28;19914;-67
2022/01/13 04:09:54;;;;;;;0.28;0.28;;;-1.00;99.90;;;;;;5013199;28;20387;-67
2022/01/13 04:12:22;;;;;;;0.40;0.40;;;-1.00;99.90;;;;;;5014587;28;20034;-67
2022/01/13 04:14:54;;;;;;;2.00;1.50;;;-0.80;99.90;;;;;;5014032;28;20042;-67
2022/01/13 04:17:22;;;;;;;1.88;1.65;;;-0.70;99.90;;;;;;5012801;28;20022;-67
2022/01/13 04:19:50;;;;;;;3.05;1.80;;;-0.70;99.90;;;;;;5012847;28;20050;-67
2022/01/13 04:22:17;;;;;;;0.20;0.20;;;-0.90;99.90;;;;;;5012793;28;20045;-67
2022/01/13 04:24:50;;;;;;;0.98;0.98;;;-0.80;99.90;;;;;;5013091;28;20026;-67
2022/01/13 04:27:29;;;;;;;0.50;0.50;;;-0.70;99.90;;;;;;5013027;28;20038;-67
2022/01/13 04:30:23;;;;;;;0.50;0.50;;;-0.70;99.90;;;;;;5013771;28;20505;-67
2022/01/13 04:32:49;;;;;;;0.70;0.65;;;-0.60;99.90;;;;;;5012872;28;20037;-67
2022/01/13 04:35:15;;;;;;;0.47;0.47;;;-0.60;99.90;;;;;;5013901;28;20030;-67
2022/01/13 04:37:41;;;;;;;0.10;0.10;;;-0.60;99.90;;;;;;5012559;28;20026;-67
2022/01/13 04:40:10;;;;;;;6.80;2.58;;;-0.70;99.90;;;;;;5012622;28;20077;-67
2022/01/13 04:42:41;;;;;;;0.90;0.88;;;-0.70;99.90;;;;;;5013780;28;20380;-67
2022/01/13 04:45:07;;;;;;;0.15;0.15;;;-0.80;99.90;;;;;;4996960;28;20157;-68
2022/01/13 04:47:33;;;;;;;0.40;0.40;;;-0.80;99.90;;;;;;5013442;28;20037;-67
2022/01/13 04:49:59;;;;;;;0.85;0.85;;;-0.80;99.90;;;;;;5013578;28;20034;-67
2022/01/13 04:52:25;;;;;;;0.43;0.43;;;-0.70;99.90;;;;;;5013745;28;20522;-67
2022/01/13 04:54:51;;;;;;;0.10;0.10;;;-0.70;99.90;;;;;;4995594;28;20052;-67
2022/01/13 04:57:17;;;;;;;2.65;1.33;;;-0.60;99.90;;;;;;5011727;28;20034;-67
2022/01/13 04:59:44;;;;;;;0.28;0.28;;;-0.70;99.90;;;;;;5011383;28;20100;-67
2022/01/13 05:02:11;;;;;;;0.60;0.57;;;-0.80;99.90;;;;;;5011899;28;20041;-67
2022/01/13 05:04:36;;;;;;;0.30;0.30;;;-0.90;99.90;;;;;;5012921;28;20041;-67
2022/01/13 05:07:03;;;;;;;1.13;1.13;;;-0.90;99.90;;;;;;5013086;28;20029;-68
2022/01/13 05:09:28;;;;;;;2.58;2.47;;;-0.80;99.90;;;;;;5013056;28;20041;-66
2022/01/13 05:11:55;;;;;;;0.20;0.20;;;-0.80;99.90;;;;;;5011930;28;20497;-67
2022/01/13 05:14:21;;;;;;;1.45;1.35;;;-0.60;99.90;;;;;;5013039;28;20053;-67
2022/01/13 05:16:55;;;;;;;1.08;1.08;;;-0.70;99.90;;;;;;5012983;28;20120;-68
2022/01/13 05:19:36;;;;;;;6.82;2.85;;;-0.70;99.90;;;;;;5032567;28;20124;-66
2022/01/13 05:22:15;;;;;;;1.20;1.17;;;-0.30;99.90;;;;;;5031447;28;20065;-68
2022/01/13 05:24:46;;;;;;;0.57;0.57;;;0.20;99.90;;;;;;5032486;28;20060;-66
2022/01/13 05:27:12;;;;;;;0.95;0.95;;;0.40;99.90;;;;;;5032562;28;20064;-67
2022/01/13 05:29:38;;;;;;;0.20;0.20;;;0.30;99.90;;;;;;5032284;28;20030;-68
2022/01/13 05:32:04;;;;;;;1.80;1.65;;;0.20;99.90;;;;;;5031047;28;20119;-69
2022/01/13 05:34:32;;;;;;;4.28;3.97;;;0.20;99.90;;;;;;5021954;28;20064;-69
2022/01/13 05:36:58;;;;;;;1.25;1.23;;;0.10;99.90;;;;;;5011246;28;20044;-69
2022/01/13 05:39:23;;;;;;;2.08;1.95;;;-0.10;99.90;;;;;;5012707;28;20033;-70
2022/01/13 05:41:49;;;;;;;10.52;2.35;;;-0.20;99.90;;;;;;5012067;28;20038;-69
2022/01/13 05:44:15;;;;;;;4.65;3.55;;;-0.10;99.90;;;;;;5012412;28;20473;-68
2022/01/13 05:46:40;;;;;;;1.33;1.30;;;-0.10;99.90;;;;;;5012271;28;20095;-68
2022/01/13 05:49:06;;;;;;;1.48;1.23;;;-0.10;99.90;;;;;;5010926;28;20045;-68
2022/01/13 05:51:33;;;;;;;2.42;0.73;;;-0.20;99.90;;;;;;4994688;28;20044;-67
2022/01/13 05:53:59;;;;;;;0.47;0.47;;;-0.40;99.90;;;;;;5012098;28;20564;-68
2022/01/13 05:56:25;;;;;;;5.28;3.90;;;-0.40;99.90;;;;;;5010812;28;20037;-68
2022/01/13 05:58:51;;;;;;;1.90;1.58;;;-0.40;99.90;;;;;;5011825;28;20124;-68
2022/01/13 06:01:17;;;;;;;0.50;0.50;;;-0.30;99.90;;;;;;5012071;28;20034;-66
2022/01/13 06:03:43;;;;;;;2.38;0.77;;;-0.30;99.90;;;;;;4994503;28;20026;-67
2022/01/13 06:06:09;;;;;;;0.20;0.20;;;-0.20;99.90;;;;;;5012286;28;20041;-66
2022/01/13 06:08:35;;;;;;;0.38;0.38;;;-0.20;99.90;;;;;;5010349;28;20421;-66
2022/01/13 06:11:01;;;;;;;6.07;1.17;;;-0.10;99.90;;;;;;5011553;28;20059;-67
2022/01/13 06:13:26;;;;;;;2.30;2.10;;;-0.10;99.90;;;;;;5012237;28;20037;-67
2022/01/13 06:15:52;;;;;;;0.10;0.10;;;-0.30;99.90;;;;;;5011916;28;20694;-67
2022/01/13 06:18:19;;;;;;;1.25;0.70;;;-0.40;99.90;;;;;;5012339;28;20033;-67
2022/01/13 06:20:45;;;;;;;6.30;5.00;;;-0.40;99.90;;;;;;5010224;28;20364;-67
2022/01/13 06:23:15;;;;;;;7.72;3.10;;;-0.40;99.90;;;;;;5012182;28;20044;-67
2022/01/13 06:25:41;;;;;;;0.20;0.20;;;-0.50;99.90;;;;;;5011959;28;20041;-68
2022/01/13 06:28:07;;;;;;;1.17;1.08;;;-0.50;99.90;;;;;;5011939;28;20463;-68
2022/01/13 06:30:33;;;;;;;2.35;1.65;;;-0.40;99.90;;;;;;5011773;28;20495;-67
2022/01/13 06:32:59;;;;;;;0.63;0.63;;;-0.40;99.90;;;;;;5009560;28;20034;-66
2022/01/13 06:35:25;;;;;;;2.17;1.55;;;-0.40;99.90;;;;;;5010341;28;20383;-67
2022/01/13 06:37:50;;;;;;;0.65;0.65;;;-0.40;99.90;;;;;;5011505;28;20510;-67
2022/01/13 06:40:16;;;;;;;0.15;0.15;;;-0.30;99.90;;;;;;5010535;28;20057;-67
2022/01/13 06:42:42;;;;;;;0.52;0.52;;;-0.30;99.90;;;;;;5010712;28;20026;-67
2022/01/13 06:45:13;;;;;;;1.58;1.48;;;-0.30;99.90;;;;;;5012004;28;20087;-67
2022/01/13 06:47:40;;;;;;;0.10;0.10;;;-0.30;99.90;;;;;;5011437;28;20030;-67
2022/01/13 06:50:09;;;;;;;1.40;1.33;;;-0.40;99.90;;;;;;5011632;28;20383;-67
2022/01/13 06:52:35;;;;;;;0.85;0.85;;;-0.50;99.90;;;;;;5010632;28;20036;-67
2022/01/13 06:55:01;;;;;;;0.10;0.10;;;-0.50;99.90;;;;;;5011535;28;20061;-67
2022/01/13 06:57:30;;;;;;;4.90;3.85;;;-0.60;99.90;;;;;;5011405;28;20045;-67
2022/01/13 06:59:56;;;;;;;0.20;0.20;;;-0.60;99.90;;;;;;5011596;28;20030;-67
2022/01/13 07:02:23;;;;;;;0.63;0.63;;;-0.70;99.90;;;;;;4993964;28;20089;-66
2022/01/13 07:04:49;;;;;;;2.28;2.17;;;-0.80;99.90;;;;;;5010089;28;20483;-67
2022/01/13 07:07:16;;;;;;;0.90;0.90;;;-0.70;99.90;;;;;;5011638;28;20048;-67
2022/01/13 07:09:42;;;;;;;0.80;0.80;;;-0.70;99.90;;;;;;5011467;28;20030;-66
2022/01/13 07:12:09;;;;;;;3.80;3.53;;;-0.70;99.90;;;;;;5011360;28;20105;-66
2022/01/13 07:14:35;;;;;;;2.70;1.85;;;-0.70;99.90;;;;;;5011517;28;20675;-67
2022/01/13 07:17:01;;;;;;;0.32;0.32;;;-0.70;99.90;;;;;;5011249;28;20557;-67
2022/01/13 07:19:27;;;;;;;1.55;1.45;;;-0.80;99.90;;;;;;5011369;28;20124;-66
2022/01/13 07:21:52;;;;;;;0.40;0.40;;;-0.90;99.90;;;;;;5023912;28;20041;-66
2022/01/13 07:24:18;;;;;;;1.00;1.00;;;-1.00;99.90;;;;;;5015262;28;20109;-67
2022/01/13 07:26:44;;;;;;;0.43;0.43;;;-1.10;99.90;;;;;;5014804;28;20486;-67
2022/01/13 07:29:10;;;;;;;0.63;0.55;;;-1.10;99.90;;;;;;5014954;28;20745;-67
2022/01/13 07:31:37;;;;;;;0.47;0.47;;;-1.10;99.90;;;;;;5014904;28;20133;-67
2022/01/13 07:34:04;;;;;;;1.13;1.13;;;-1.20;99.90;;;;;;5017588;28;20149;-67
2022/01/13 07:36:30;;;;;;;1.98;0.85;;;-1.10;99.90;;;;;;5015156;28;20029;-65
2022/01/13 07:38:56;;;;;;;2.13;1.65;;;-1.10;99.90;;;;;;5013657;28;20032;-65
2022/01/13 07:41:21;;;;;;;0.38;0.38;;;-1.10;99.90;;;;;;5014882;28;20030;-65
2022/01/13 07:43:54;;;;;;;3.03;2.75;;;-1.10;99.90;;;;;;5013403;28;20080;-65
2022/01/13 07:46:22;;;;;;;2.97;1.13;;;-1.00;99.90;;;;;;5029855;28;20034;-65
2022/01/13 07:48:48;;;;;;;0.10;0.10;;;-1.10;99.90;;;;;;5014268;28;20050;-65
2022/01/13 07:51:14;;;;;;;0.60;0.60;;;-1.10;99.90;;;;;;5014759;28;20072;-65
2022/01/13 07:53:40;;;;;;;3.85;3.25;;;-1.10;99.90;;;;;;5014492;28;20038;-66
2022/01/13 07:56:06;;;;;;;2.15;2.00;;;-1.00;99.90;;;;;;5014527;28;20034;-66
2022/01/13 07:58:34;;;;;;;1.45;1.35;;;-1.00;99.90;;;;;;5014502;28;20386;-65
2022/01/13 08:01:00;;;;;;;2.38;2.17;;;-0.90;99.90;;;;;;5012783;28;20269;-64
2022/01/13 08:03:26;;;;;;;0.47;0.47;;;-0.90;99.90;;;;;;4996664;28;20025;-66
2022/01/13 08:05:52;;;;;;;0.10;0.10;;;-0.90;99.90;;;;;;4996626;28;20038;-65
2022/01/13 08:08:18;;;;;;;0.10;0.10;;;-0.90;99.90;;;;;;5014120;28;20029;-65
2022/01/13 08:10:43;;;;;;;2.17;1.52;;;-0.80;99.90;;;;;;5014192;28;20440;-64
2022/01/13 08:13:09;;;;;;;0.17;0.17;;;-0.70;99.90;;;;;;5012918;28;20172;-65
2022/01/13 08:15:36;;;;;;;1.40;1.30;;;-0.70;99.90;;;;;;5014138;28;20029;-65
2022/01/13 08:20:46;;;;;;;2.28;1.45;;;-0.50;99.90;;;;;;5012543;28;20041;-66
2022/01/13 08:23:12;;;;;;;1.05;1.05;;;-0.60;99.90;;;;;;5014023;28;20030;-67
2022/01/13 08:25:38;;;;;;;0.20;0.20;;;-0.50;99.90;;;;;;5012605;28;20426;-68
2022/01/13 08:28:05;;;;;;;0.35;0.35;;;-0.40;99.90;;;;;;5013972;28;20034;-67
2022/01/13 08:30:32;;;;;;;3.47;1.35;;;-0.40;99.90;;;;;;5013938;28;20494;-68
2022/01/13 08:32:58;;;;;;;1.98;1.60;;;-0.50;99.90;;;;;;5027819;28;20034;-67
2022/01/13 08:35:24;;;;;;;1.98;1.77;;;-0.30;99.90;;;;;;4996164;28;20033;-69
2022/01/13 08:37:50;;;;;;;0.10;0.10;;;-0.20;99.90;;;;;;5013721;28;20113;-68
2022/01/13 08:40:16;;;;;;;0.47;0.47;;;-0.20;99.90;;;;;;5012311;28;20033;-68
2022/01/13 08:42:42;;;;;;;2.60;2.08;;;-0.20;99.90;;;;;;5012447;28;20379;-68
2022/01/13 08:45:12;;;;;;;5.40;2.72;;;-0.10;99.90;;;;;;5013335;28;20034;-67
2022/01/13 08:47:41;;;;;;;0.30;0.30;;;-0.10;99.90;;;;;;5012262;28;20026;-67
2022/01/13 08:50:08;;;;;;;0.20;0.20;;;0.00;99.90;;;;;;5011817;28;20063;-68
2022/01/13 08:52:38;;;;;;;0.10;0.10;;;0.10;99.90;;;;;;5013460;28;20080;-67
2022/01/13 08:55:07;;;;;;;1.10;1.08;;;0.10;99.90;;;;;;5012253;28;20489;-68
2022/01/13 08:57:34;;;;;;;1.38;0.88;;;0.20;99.90;;;;;;5013046;28;20042;-67
2022/01/13 09:00:01;;;;;;;1.60;1.50;;;0.30;99.90;;;;;;5011815;28;20052;-67
2022/01/13 09:02:30;;;;;;;0.10;0.10;;;0.50;99.90;;;;;;5013244;28;20034;-68
2022/01/13 09:04:56;;;;;;;12.20;5.15;;;0.60;99.90;;;;;;5011732;28;20026;-67
2022/01/13 09:07:22;;;;;;;2.58;2.03;;;0.80;99.90;;;;;;5012234;28;20076;-67
2022/01/13 09:09:47;;;;;;;3.35;3.08;;;0.90;99.90;;;;;;5011533;28;20045;-68
2022/01/13 09:12:13;;;;;;;0.98;0.98;;;1.00;99.90;;;;;;5026274;28;20038;-67
2022/01/13 09:14:41;;;;;;;0.32;0.32;;;1.00;99.90;;;;;;5031357;28;20540;-67
2022/01/13 09:17:12;;;;;;;0.55;0.55;;;1.10;99.90;;;;;;5031086;28;20528;-68
2022/01/13 09:19:41;;;;;;;2.30;2.20;;;1.10;99.90;;;;;;5015676;28;20037;-67
2022/01/13 09:22:07;;;;;;;1.17;1.17;;;1.20;99.90;;;;;;5030802;28;20572;-68
2022/01/13 09:24:32;;;;;;;0.35;0.35;;;1.30;99.90;;;;;;5014698;28;20064;-68
2022/01/13 09:26:58;;;;;;;0.10;0.10;;;1.40;99.90;;;;;;5020738;28;20033;-67
2022/01/13 09:29:24;;;;;;;0.20;0.20;;;1.50;99.90;;;;;;5011615;28;20033;-68
2022/01/13 09:31:50;;;;;;;1.90;1.00;;;1.50;99.90;;;;;;5012853;28;20427;-67
2022/01/13 09:34:15;;;;;;;2.83;2.22;;;1.60;99.90;;;;;;5012653;28;20026;-68
2022/01/13 09:36:41;;;;;;;0.30;0.30;;;1.80;99.90;;;;;;5012697;28;20037;-68
2022/01/13 09:39:09;;;;;;;0.95;0.95;;;1.90;99.90;;;;;;5012601;28;20034;-68
2022/01/13 09:41:41;;;;;;;0.65;0.65;;;2.00;99.90;;;;;;5011368;28;20036;-67
2022/01/13 09:44:10;;;;;;;0.20;0.20;;;2.10;99.90;;;;;;5010986;28;20037;-67
2022/01/13 09:46:37;;;;;;;0.28;0.28;;;2.00;99.90;;;;;;5012370;28;20080;-66
2022/01/13 09:49:06;;;;;;;2.22;1.35;;;2.00;99.90;;;;;;5010906;28;20209;-68
2022/01/13 09:51:34;;;;;;;0.50;0.50;;;1.90;99.90;;;;;;5012170;28;20072;-68
2022/01/13 09:54:00;;;;;;;3.17;2.28;;;2.00;99.90;;;;;;4994369;28;20553;-66
2022/01/13 09:56:26;;;;;;;2.90;2.00;;;2.10;99.90;;;;;;5011150;28;20109;-67
2022/01/13 09:58:52;;;;;;;0.80;0.80;;;2.10;99.90;;;;;;5012052;28;20445;-67
2022/01/13 10:01:18;;;;;;;1.73;0.90;;;2.30;99.90;;;;;;5011950;28;20044;-67
2022/01/13 10:03:45;;;;;;;0.50;0.50;;;2.20;99.90;;;;;;5011000;28;20037;-67
2022/01/13 10:06:17;;;;;;;0.82;0.82;;;2.30;99.90;;;;;;5010926;28;20038;-67
2022/01/13 10:08:54;;;;;;;1.92;1.75;;;2.60;99.90;;;;;;5010747;28;20074;-67
2022/01/13 10:11:36;;;;;;;3.63;1.67;;;2.70;99.90;;;;;;5011089;28;20033;-68
2022/01/13 10:17:14;;;;;;;4.28;2.88;;;3.00;99.90;;;;;;5010266;28;20042;-67
2022/01/13 10:19:44;;;;;;;2.33;1.30;;;3.00;99.90;;;;;;5012204;28;20088;-69
2022/01/13 10:22:16;;;;;;;6.60;4.28;;;3.10;99.90;;;;;;5010432;28;20033;-68
2022/01/13 10:24:50;;;;;;;0.43;0.43;;;3.20;99.90;;;;;;5011879;28;20056;-70
2022/01/13 10:27:23;;;;;;;2.83;2.38;;;3.10;99.90;;;;;;5010678;28;20045;-69
2022/01/13 10:30:01;;;;;;;1.65;1.52;;;3.10;99.90;;;;;;5011843;28;20038;-69
2022/01/13 10:32:53;;;;;;;0.90;0.85;;;3.20;99.90;;;;;;5011697;28;20054;-68
2022/01/13 10:35:21;;;;;;;7.03;3.70;;;3.30;99.90;;;;;;5011577;28;20076;-70
2022/01/13 10:37:58;;;;;;;6.22;3.05;;;3.00;99.90;;;;;;5010746;28;20109;-69
2022/01/13 10:40:30;;;;;;;0.90;0.90;;;2.90;99.90;;;;;;5010209;28;20026;-71
2022/01/13 10:45:37;;;;;;;0.63;0.63;;;3.10;99.90;;;;;;5010397;28;20120;-70
2022/01/13 10:48:15;;;;;;;2.92;1.60;;;3.20;99.90;;;;;;5009831;28;20057;-69
2022/01/13 10:50:50;;;;;;;1.20;1.10;;;3.20;99.90;;;;;;4994200;28;20034;-69
2022/01/13 10:53:29;;;;;;;5.75;4.03;;;3.20;99.90;;;;;;4993900;28;20029;-70
2022/01/13 10:56:00;;;;;;;3.38;2.10;;;2.90;99.90;;;;;;4995542;28;20041;-69
2022/01/13 10:58:33;;;;;;;10.77;3.63;;;2.50;99.90;;;;;;5014199;28;20487;-69
2022/01/13 11:01:00;;;;;;;0.60;0.60;;;2.50;99.90;;;;;;5015131;28;20489;-69
2022/01/13 11:03:29;;;;;;;12.57;4.85;;;2.80;99.90;;;;;;5015634;28;20040;-71
2022/01/13 11:06:05;;;;;;;3.15;2.25;;;2.80;99.90;;;;;;5014360;28;20563;-69
2022/01/13 11:08:43;;;;;;;1.95;1.77;;;3.00;99.90;;;;;;5015710;28;20064;-68
2022/01/13 11:11:26;;;;;;;2.88;1.80;;;3.00;99.90;;;;;;5015208;28;20057;-69
2022/01/13 11:14:14;;;;;;;4.03;3.08;;;3.20;99.90;;;;;;5015112;28;20041;-68
2022/01/13 11:16:40;;;;;;;1.38;1.27;;;3.50;99.90;;;;;;5016219;28;20057;-68
2022/01/13 11:19:09;;;;;;;2.08;0.82;;;3.30;99.90;;;;;;5031713;28;20479;-66
2022/01/13 11:21:37;;;;;;;1.60;1.33;;;3.20;99.90;;;;;;5028787;28;20029;-67
2022/01/13 11:24:03;;;;;;;5.28;0.82;;;3.60;99.90;;;;;;5014630;28;20511;-66
2022/01/13 11:26:30;;;;;;;1.90;1.75;;;3.90;99.90;;;;;;5013998;28;20038;-66
2022/01/13 11:28:58;;;;;;;1.35;1.25;;;4.10;99.90;;;;;;5015126;28;20033;-66
2022/01/13 11:31:24;;;;;;;2.20;2.10;;;4.20;99.90;;;;;;5013691;28;20364;-67
2022/01/13 11:33:51;;;;;;;4.38;3.42;;;4.30;99.90;;;;;;5014848;28;20029;-68
2022/01/13 11:36:18;;;;;;;0.45;0.45;;;4.60;99.90;;;;;;5014477;28;20033;-67
2022/01/13 11:38:58;;;;;;;1.35;1.27;;;4.40;99.90;;;;;;5013690;28;20034;-68
2022/01/13 11:41:24;;;;;;;1.17;1.10;;;3.90;99.90;;;;;;5014592;28;20052;-66
2022/01/13 11:43:51;;;;;;;2.22;2.13;;;3.90;99.90;;;;;;5014755;28;20030;-67
2022/01/13 11:46:23;;;;;;;0.60;0.60;;;3.90;99.90;;;;;;5014250;28;20026;-67
2022/01/13 11:49:15;;;;;;;1.90;1.77;;;4.30;99.90;;;;;;5014278;28;20084;-67
2022/01/13 11:51:56;;;;;;;0.28;0.28;;;5.20;99.90;;;;;;5013239;28;20041;-67
2022/01/13 11:54:35;;;;;;;1.42;1.35;;;6.10;99.90;;;;;;5014224;28;20501;-67
2022/01/13 11:57:21;;;;;;;2.00;1.85;;;6.40;99.90;;;;;;5012695;28;20034;-68
2022/01/13 11:59:57;;;;;;;4.03;2.03;;;7.60;99.90;;;;;;5029526;28;20387;-67
2022/01/13 12:02:33;;;;;;;0.60;0.60;;;5.20;99.90;;;;;;5014158;28;20179;-66
2022/01/13 12:05:14;;;;;;;2.83;1.15;;;5.30;99.90;;;;;;5014476;28;20179;-67
2022/01/13 12:07:53;;;;;;;2.38;2.17;;;6.00;99.90;;;;;;5012929;28;20037;-67
2022/01/13 12:10:41;;;;;;;0.88;0.85;;;7.00;99.90;;;;;;5013002;28;20046;-67
2022/01/13 12:13:44;;;;;;;0.70;0.70;;;7.60;99.90;;;;;;5013914;28;20111;-67
2022/01/13 12:16:11;;;;;;;10.30;4.38;;;8.70;99.90;;;;;;5014097;28;20021;-66
2022/01/13 12:18:52;;;;;;;0.52;0.52;;;8.10;99.90;;;;;;5012945;28;20446;-67
2022/01/13 12:21:40;;;;;;;3.60;2.83;;;8.00;99.90;;;;;;5013656;28;20113;-67
2022/01/13 12:24:08;;;;;;;0.35;0.35;;;7.30;99.90;;;;;;5013651;28;20065;-67
2022/01/13 12:26:33;;;;;;;3.72;2.30;;;6.90;99.90;;;;;;5014014;28;20041;-67
2022/01/13 12:29:23;;;;;;;11.93;2.95;;;6.20;99.90;;;;;;5013604;28;20041;-67
2022/01/13 12:32:05;;;;;;;1.83;1.67;;;6.10;99.90;;;;;;5013587;28;20033;-65
2022/01/13 12:34:34;;;;;;;0.98;0.98;;;7.50;99.90;;;;;;5013675;28;20033;-66
2022/01/13 12:37:21;;;;;;;2.05;1.95;;;8.30;99.90;;;;;;5013511;28;20046;-67
2022/01/13 12:40:01;;;;;;;3.22;2.28;;;8.70;99.90;;;;;;5013449;28;20030;-67
2022/01/13 12:46:07;;;;;;;1.13;1.08;;;6.60;99.90;;;;;;4977835;28;20081;-67
2022/01/13 12:48:34;;;;;;;3.25;2.75;;;8.00;99.90;;;;;;5013154;28;20483;-67
2022/01/13 12:51:01;;;;;;;1.80;1.50;;;7.60;99.90;;;;;;4995809;28;20038;-67
2022/01/13 12:53:34;;;;;;;14.52;3.10;;;8.40;99.90;;;;;;5013231;28;20057;-67
2022/01/13 12:56:06;;;;;;;1.60;1.48;;;7.70;99.90;;;;;;5012000;28;20041;-67
2022/01/13 12:58:39;;;;;;;0.52;0.52;;;8.50;99.90;;;;;;5011756;28;20124;-66
2022/01/13 13:01:17;;;;;;;5.95;3.53;;;9.30;99.90;;;;;;5011365;28;20037;-67
2022/01/13 13:03:56;;;;;;;2.17;2.05;;;8.60;99.90;;;;;;5013208;28;20038;-67
2022/01/13 13:06:23;;;;;;;3.47;1.65;;;7.70;99.90;;;;;;5013314;28;20113;-67
2022/01/13 13:08:49;;;;;;;0.40;0.40;;;7.00;99.90;;;;;;5011694;28;20045;-67
2022/01/13 13:11:15;;;;;;;1.65;1.55;;;6.40;99.90;;;;;;5014539;28;20030;-67
2022/01/13 13:13:52;;;;;;;1.45;1.35;;;7.60;99.90;;;;;;5030700;28;20045;-66
2022/01/13 13:16:18;;;;;;;2.15;1.98;;;8.20;99.90;;;;;;5032547;28;20044;-67
2022/01/13 13:18:44;;;;;;;2.10;2.00;;;7.30;99.90;;;;;;5014566;28;20021;-67
2022/01/13 13:21:11;;;;;;;0.22;0.22;;;7.40;99.90;;;;;;5032343;28;20084;-66
2022/01/13 13:23:41;;;;;;;5.38;4.10;;;8.20;99.90;;;;;;5032501;28;20040;-66
2022/01/13 13:26:16;;;;;;;2.53;2.25;;;8.40;99.90;;;;;;5031221;28;20099;-68
2022/01/13 13:28:43;;;;;;;3.28;1.80;;;8.80;99.90;;;;;;5032428;28;20033;-66
2022/01/13 13:31:19;;;;;;;5.85;4.45;;;7.70;99.90;;;;;;5032360;28;20084;-66
2022/01/13 13:33:55;;;;;;;1.50;1.35;;;7.70;99.90;;;;;;5032318;28;20108;-67
2022/01/13 13:36:26;;;;;;;0.88;0.85;;;7.40;99.90;;;;;;5030998;28;20052;-67